Time;durP1;ratioP1;P1;durP2;ratioP2;P2;SDS_P1;SDS_P2;PMS_P1;PMS_P2;Temp;Humidity;BMP_temperature;BMP_pressure;BME280_temperature;BME280_humidity;BME280_pressure;Samples;Min_cycle;Max_cycle;Signal;HPM_P1;HPM_P2
2023/09/05 00:03:34;;;;;;;12.38;11.18;;;14.90;99.90;;;;;;21022792;28;20399;-59
2023/09/05 00:13:35;;;;;;;10.98;9.88;;;14.90;99.90;;;;;;21044832;28;20063;-59
2023/09/05 00:23:40;;;;;;;10.20;9.20;;;14.90;99.90;;;;;;21033629;28;20032;-59
2023/09/05 00:33:42;;;;;;;10.05;9.05;;;14.90;99.90;;;;;;21026337;28;20024;-59
2023/09/05 00:43:44;;;;;;;10.20;9.15;;;14.80;99.90;;;;;;21057674;28;20023;-59
2023/09/05 00:53:46;;;;;;;8.52;7.63;;;14.60;99.90;;;;;;21060127;28;20660;-59
2023/09/05 01:03:48;;;;;;;8.52;7.63;;;14.40;99.90;;;;;;21053738;28;20044;-59
2023/09/05 01:13:50;;;;;;;9.82;7.93;;;14.10;99.90;;;;;;21053496;28;20058;-59
2023/09/05 01:24:14;;;;;;;7.63;6.75;;;13.90;99.90;;;;;;21042622;28;20044;-52
2023/09/05 01:34:16;;;;;;;9.05;6.70;;;13.70;99.90;;;;;;21056234;28;20428;-59
2023/09/05 01:44:18;;;;;;;6.68;5.97;;;13.70;99.90;;;;;;21049845;28;20094;-59
2023/09/05 01:54:20;;;;;;;6.63;5.50;;;13.70;99.90;;;;;;21049302;28;20073;-59
2023/09/05 02:04:21;;;;;;;7.78;6.30;;;13.70;99.90;;;;;;21046308;28;20043;-59
2023/09/05 02:14:23;;;;;;;7.85;5.80;;;13.70;99.90;;;;;;21041923;28;20028;-59
2023/09/05 02:24:29;;;;;;;8.40;7.13;;;13.70;99.90;;;;;;21048251;28;20355;-59
2023/09/05 02:34:31;;;;;;;6.03;5.43;;;13.80;99.90;;;;;;21051303;28;20039;-57
2023/09/05 02:44:32;;;;;;;7.90;7.10;;;13.90;99.90;;;;;;21030488;28;20032;-60
2023/09/05 02:54:34;;;;;;;6.07;5.47;;;14.00;99.90;;;;;;21029764;28;20039;-60
2023/09/05 03:04:36;;;;;;;7.82;5.60;;;14.00;99.90;;;;;;21043037;28;20556;-58
2023/09/05 03:14:38;;;;;;;7.50;6.20;;;14.00;99.90;;;;;;21044032;28;20478;-54
2023/09/05 03:24:40;;;;;;;6.53;5.85;;;14.00;99.90;;;;;;21008947;28;20051;-54
2023/09/05 03:34:48;;;;;;;9.02;6.88;;;14.10;99.90;;;;;;20994629;28;20489;-58
2023/09/05 03:44:50;;;;;;;6.05;5.40;;;14.00;99.90;;;;;;21011986;28;20028;-54
2023/09/05 03:54:52;;;;;;;7.25;5.90;;;14.00;99.90;;;;;;21017154;28;20377;-60
2023/09/05 04:04:55;;;;;;;5.82;5.20;;;14.00;99.90;;;;;;20995878;28;20040;-59
2023/09/05 04:14:57;;;;;;;6.38;5.78;;;14.00;99.90;;;;;;21001556;28;20044;-52
2023/09/05 04:24:59;;;;;;;6.88;5.60;;;13.90;99.90;;;;;;21029798;28;20036;-59
2023/09/05 04:35:02;;;;;;;7.22;5.72;;;13.90;99.90;;;;;;21007658;28;20654;-59
2023/09/05 04:45:06;;;;;;;5.72;5.22;;;14.00;99.90;;;;;;21024578;28;20542;-59
2023/09/05 04:55:08;;;;;;;6.32;5.72;;;14.00;99.90;;;;;;21009357;28;20060;-59
2023/09/05 05:05:11;;;;;;;6.85;6.18;;;13.90;99.90;;;;;;21007761;28;20345;-53
2023/09/05 05:15:13;;;;;;;7.85;7.05;;;13.80;99.90;;;;;;21026388;28;20032;-57
2023/09/05 05:25:15;;;;;;;6.90;5.95;;;13.80;99.90;;;;;;21035667;28;20032;-59
2023/09/05 05:35:17;;;;;;;8.30;5.80;;;13.80;99.90;;;;;;21004031;28;20028;-54
2023/09/05 05:45:19;;;;;;;5.90;5.38;;;13.90;99.90;;;;;;21016112;28;20481;-58
2023/09/05 05:55:20;;;;;;;6.60;6.00;;;13.90;99.90;;;;;;21006357;28;20456;-59
2023/09/05 06:05:23;;;;;;;7.78;6.78;;;14.10;99.90;;;;;;21026866;28;20036;-56
2023/09/05 06:15:25;;;;;;;6.28;4.35;;;14.20;99.90;;;;;;21021339;28;20547;-58
2023/09/05 06:25:29;;;;;;;4.75;4.18;;;14.20;99.90;;;;;;21000594;28;20036;-59
2023/09/05 06:35:31;;;;;;;5.43;4.25;;;14.20;99.90;;;;;;21006362;28;20035;-59
2023/09/05 06:45:33;;;;;;;5.78;4.28;;;14.10;99.90;;;;;;21001480;28;20032;-60
2023/09/05 06:55:35;;;;;;;7.05;6.10;;;14.10;99.90;;;;;;21019888;28;20090;-53
2023/09/05 07:05:43;;;;;;;4.40;3.03;;;14.20;99.90;;;;;;21021506;28;20120;-60
2023/09/05 07:15:45;;;;;;;4.03;3.00;;;14.20;99.90;;;;;;21008484;28;20541;-53
2023/09/05 07:25:49;;;;;;;3.33;2.58;;;14.10;99.90;;;;;;20994573;28;20385;-59
2023/09/05 07:35:52;;;;;;;4.50;2.80;;;14.30;99.90;;;;;;21026660;28;20036;-59
2023/09/05 07:45:56;;;;;;;3.60;2.95;;;14.70;99.90;;;;;;20992917;28;20036;-59
2023/09/05 07:55:58;;;;;;;4.13;2.55;;;14.80;99.90;;;;;;21005825;28;20127;-59
2023/09/05 08:06:04;;;;;;;3.00;2.60;;;14.90;99.90;;;;;;20984579;28;20048;-59
2023/09/05 08:16:10;;;;;;;5.65;2.40;;;15.10;99.90;;;;;;20993479;28;20040;-60
2023/09/05 08:26:15;;;;;;;2.95;2.20;;;16.10;99.90;;;;;;21017088;28;20102;-59
2023/09/05 08:36:19;;;;;;;2.92;1.98;;;16.80;99.90;;;;;;20995607;28;20029;-55
2023/09/05 08:46:23;;;;;;;4.30;2.42;;;17.60;99.90;;;;;;20997060;28;20032;-54
2023/09/05 08:56:26;;;;;;;3.92;2.17;;;18.20;99.90;;;;;;21015384;28;20086;-60
2023/09/05 09:06:29;;;;;;;2.65;2.10;;;18.70;99.90;;;;;;20999812;28;20048;-60
2023/09/05 09:16:31;;;;;;;3.72;2.00;;;18.80;99.90;;;;;;21024268;28;20101;-53
2023/09/05 09:26:34;;;;;;;2.15;1.90;;;18.60;99.90;;;;;;21007403;28;20032;-61
2023/09/05 09:36:58;;;;;;;2.50;2.10;;;18.30;99.90;;;;;;20824719;28;20525;-52
2023/09/05 09:47:02;;;;;;;7.72;2.28;;;18.30;99.90;;;;;;20838655;28;20131;-61
2023/09/05 09:57:13;;;;;;;2.10;1.90;;;18.50;99.90;;;;;;20852608;28;20115;-60
2023/09/05 10:07:19;;;;;;;2.80;2.20;;;18.90;99.90;;;;;;20850616;28;20047;-59
2023/09/05 10:17:22;;;;;;;3.55;2.00;;;19.50;99.70;;;;;;20995799;28;20043;-58
2023/09/05 10:27:25;;;;;;;3.30;2.30;;;20.30;99.90;;;;;;21018242;28;20077;-59
2023/09/05 10:37:59;;;;;;;2.90;2.13;;;20.90;97.40;;;;;;21012228;28;20389;-59
2023/09/05 10:48:17;;;;;;;2.78;2.30;;;21.30;97.80;;;;;;21009035;28;20042;-56
2023/09/05 10:58:42;;;;;;;3.87;2.27;;;21.20;97.90;;;;;;21017854;28;20086;-55
2023/09/05 11:08:55;;;;;;;4.47;2.25;;;21.20;96.40;;;;;;21003219;28;20065;-59
2023/09/05 11:18:57;;;;;;;3.25;2.28;;;21.30;98.20;;;;;;21013105;28;20028;-53
2023/09/05 11:29:01;;;;;;;4.50;2.50;;;21.60;99.10;;;;;;20975333;28;20074;-58
2023/09/05 11:39:05;;;;;;;3.25;2.00;;;21.80;97.30;;;;;;20999831;28;20028;-58
2023/09/05 11:49:07;;;;;;;3.05;2.50;;;21.80;98.30;;;;;;21001078;28;20081;-58
2023/09/05 11:59:09;;;;;;;4.13;2.47;;;22.30;99.30;;;;;;20997421;28;20032;-59
2023/09/05 12:09:12;;;;;;;3.10;2.30;;;23.40;97.80;;;;;;21016858;28;20051;-58
2023/09/05 12:19:16;;;;;;;3.88;2.28;;;23.60;98.10;;;;;;21004266;28;20032;-58
2023/09/05 12:29:21;;;;;;;3.03;2.72;;;24.00;97.50;;;;;;20992836;28;20059;-59
2023/09/05 12:39:23;;;;;;;3.22;2.60;;;23.90;93.70;;;;;;21027685;28;20031;-56
2023/09/05 12:49:25;;;;;;;3.75;2.47;;;23.30;97.70;;;;;;21021606;28;20491;-59
2023/09/05 12:59:27;;;;;;;2.85;2.50;;;23.10;97.70;;;;;;21006458;28;20082;-60
2023/09/05 13:09:29;;;;;;;4.15;2.42;;;22.80;98.60;;;;;;21006818;28;20044;-60
2023/09/05 13:19:31;;;;;;;3.00;2.50;;;22.80;97.50;;;;;;21030943;28;20036;-59
2023/09/05 13:29:33;;;;;;;3.83;2.78;;;22.90;99.20;;;;;;21014512;28;20056;-59
2023/09/05 13:39:37;;;;;;;3.20;2.80;;;22.40;96.70;;;;;;20998258;28;20052;-59
2023/09/05 13:49:38;;;;;;;4.63;2.55;;;21.90;98.30;;;;;;21010455;28;20037;-60
2023/09/05 13:59:40;;;;;;;2.88;2.30;;;22.50;98.00;;;;;;20997114;28;20109;-60
2023/09/05 14:09:42;;;;;;;3.80;2.55;;;22.70;99.20;;;;;;20996859;28;20052;-57
2023/09/05 14:19:44;;;;;;;5.78;2.60;;;23.10;98.50;;;;;;21007119;28;20036;-60
2023/09/05 14:29:45;;;;;;;3.22;2.42;;;23.20;96.80;;;;;;20990864;28;20028;-63
2023/09/05 14:39:48;;;;;;;3.58;2.30;;;22.50;97.20;;;;;;21012783;28;20032;-61
2023/09/05 14:49:49;;;;;;;3.95;2.00;;;22.10;99.00;;;;;;20993627;28;20058;-56
2023/09/05 14:59:51;;;;;;;3.35;2.47;;;21.60;98.00;;;;;;20998990;28;20140;-62
2023/09/05 15:09:53;;;;;;;4.32;2.40;;;21.10;97.70;;;;;;21001841;28;20490;-63
2023/09/05 15:19:55;;;;;;;5.00;2.55;;;20.00;99.00;;;;;;20997887;28;20168;-55
2023/09/05 15:29:56;;;;;;;3.78;3.15;;;19.20;99.70;;;;;;21011004;28;20101;-54
2023/09/05 15:39:58;;;;;;;4.85;3.03;;;18.40;99.90;;;;;;21007525;28;20188;-60
2023/09/05 15:50:00;;;;;;;3.70;3.05;;;17.90;99.90;;;;;;21013739;28;20033;-59
2023/09/05 16:00:04;;;;;;;4.45;2.90;;;17.50;99.90;;;;;;20997792;28;20036;-58
2023/09/05 16:10:13;;;;;;;4.03;3.20;;;16.90;99.90;;;;;;21007633;28;20108;-60
2023/09/05 16:20:15;;;;;;;4.60;2.88;;;16.30;99.90;;;;;;21006884;28;20440;-58
2023/09/05 16:30:17;;;;;;;4.63;3.10;;;15.70;99.90;;;;;;20984214;28;20033;-59
2023/09/05 16:40:18;;;;;;;8.00;3.90;;;15.30;99.90;;;;;;21023045;28;20097;-58
2023/09/05 16:50:20;;;;;;;9.05;3.90;;;14.80;99.90;;;;;;21025027;28;20040;-58
2023/09/05 17:00:23;;;;;;;5.35;4.18;;;14.40;99.90;;;;;;21044101;28;20039;-52
2023/09/05 17:10:25;;;;;;;4.28;3.63;;;14.10;99.90;;;;;;20948829;28;20056;-58
2023/09/05 17:20:29;;;;;;;7.97;4.07;;;13.70;99.90;;;;;;20965924;28;20028;-53
2023/09/05 17:30:32;;;;;;;5.10;4.05;;;13.50;99.90;;;;;;20973542;28;20028;-58
2023/09/05 17:40:43;;;;;;;7.32;4.60;;;13.30;99.90;;;;;;20961878;28;20041;-58
2023/09/05 17:50:56;;;;;;;7.78;4.20;;;12.90;99.90;;;;;;20967390;28;20032;-52
2023/09/05 18:01:11;;;;;;;5.25;4.10;;;12.70;99.90;;;;;;20966975;28;20436;-59
2023/09/05 18:11:17;;;;;;;4.88;4.38;;;12.40;99.90;;;;;;20943533;28;20489;-58
2023/09/05 18:21:20;;;;;;;10.55;4.60;;;12.20;99.90;;;;;;20962401;28;20041;-59
2023/09/05 18:31:24;;;;;;;6.65;4.25;;;12.10;99.90;;;;;;20968275;28;20040;-58
2023/09/05 18:41:27;;;;;;;5.15;4.35;;;12.00;99.90;;;;;;20949598;28;20032;-58
2023/09/05 18:51:35;;;;;;;4.97;4.30;;;11.90;99.90;;;;;;20956417;28;20036;-57
2023/09/05 19:01:43;;;;;;;6.35;3.88;;;11.70;99.90;;;;;;20969369;28;20471;-58
2023/09/05 19:11:47;;;;;;;6.90;4.25;;;11.80;99.90;;;;;;21023735;28;20059;-58
2023/09/05 19:21:50;;;;;;;5.38;4.32;;;11.80;99.90;;;;;;21010906;28;20053;-58
2023/09/05 19:31:53;;;;;;;5.80;3.90;;;11.50;99.90;;;;;;20963710;28;20043;-58
2023/09/05 19:41:57;;;;;;;8.60;4.10;;;11.50;99.90;;;;;;20995451;28;20032;-61
2023/09/05 19:52:02;;;;;;;4.38;3.40;;;11.70;99.90;;;;;;20988876;28;20069;-59
2023/09/05 20:02:14;;;;;;;3.75;2.70;;;11.50;99.90;;;;;;21019071;28;20035;-59
2023/09/05 20:12:26;;;;;;;4.70;2.80;;;11.50;99.90;;;;;;21010879;28;20044;-61
2023/09/05 20:22:31;;;;;;;6.47;2.50;;;11.50;99.90;;;;;;21039684;28;20048;-59
2023/09/05 20:32:35;;;;;;;5.70;3.20;;;11.30;99.90;;;;;;21046928;28;20047;-58
2023/09/05 20:42:42;;;;;;;5.35;2.90;;;11.50;99.90;;;;;;20923550;28;20102;-60
2023/09/05 20:52:47;;;;;;;4.35;2.10;;;11.40;99.90;;;;;;21035328;28;20039;-62
2023/09/05 21:02:52;;;;;;;5.40;2.88;;;11.00;99.90;;;;;;21046090;28;20041;-61
2023/09/05 21:12:55;;;;;;;4.03;2.97;;;10.90;99.90;;;;;;21011257;28;20078;-69
2023/09/05 21:22:57;;;;;;;4.03;2.70;;;10.60;99.90;;;;;;21020720;28;20032;-67
2023/09/05 21:33:01;;;;;;;5.55;3.10;;;10.80;99.90;;;;;;20979878;28;20363;-62
2023/09/05 21:43:06;;;;;;;3.63;2.75;;;10.90;99.90;;;;;;21019237;28;20028;-66
2023/09/05 21:53:11;;;;;;;7.22;3.63;;;10.80;99.90;;;;;;21008847;28;20089;-59
2023/09/05 22:03:14;;;;;;;7.13;3.53;;;10.60;99.90;;;;;;20983520;28;20402;-62
2023/09/05 22:13:17;;;;;;;5.28;3.67;;;10.60;99.90;;;;;;21044246;28;20036;-63
2023/09/05 22:23:24;;;;;;;5.53;3.88;;;10.50;99.90;;;;;;21026718;28;20125;-60
2023/09/05 22:33:26;;;;;;;8.05;4.38;;;10.50;99.90;;;;;;21061014;28;20081;-66
2023/09/05 22:43:32;;;;;;;4.85;3.80;;;10.50;99.90;;;;;;21042193;28;20032;-68
2023/09/05 22:53:35;;;;;;;5.18;3.17;;;10.50;99.90;;;;;;21058685;28;20085;-57
2023/09/05 23:03:41;;;;;;;4.78;3.03;;;10.50;99.90;;;;;;21057857;28;20054;-57
2023/09/05 23:13:44;;;;;;;3.92;2.67;;;10.50;99.90;;;;;;21056684;28;20070;-57
2023/09/05 23:23:48;;;;;;;4.00;3.30;;;10.10;99.90;;;;;;21056919;28;20097;-57
2023/09/05 23:33:50;;;;;;;4.68;2.85;;;10.30;99.90;;;;;;21053607;28;20048;-58
2023/09/05 23:43:53;;;;;;;4.10;2.20;;;10.50;99.90;;;;;;21055743;28;20036;-58
2023/09/05 23:53:54;;;;;;;3.08;1.80;;;10.30;99.90;;;;;;21021280;28;20030;-57
